sensor_id;sensor_type;location;lat;lon;timestamp;pressure;altitude;pressure_sealevel;temperature;humidity
64544;BME280;50936;51.660;5.616;2022-08-19T00:02:11;101035.13;;;19.46;100.00
64544;BME280;50936;51.660;5.616;2022-08-19T00:04:38;101022.44;;;19.45;100.00
64544;BME280;50936;51.660;5.616;2022-08-19T00:07:06;101022.44;;;19.45;100.00
64544;BME280;50936;51.660;5.616;2022-08-19T00:09:34;101023.78;;;19.41;100.00
64544;BME280;50936;51.660;5.616;2022-08-19T00:12:01;101023.38;;;19.36;100.00
64544;BME280;50936;51.660;5.616;2022-08-19T00:14:28;101026.47;;;19.33;100.00
64544;BME280;50936;51.660;5.616;2022-08-19T00:17:00;101029.50;;;19.30;100.00
64544;BME280;50936;51.660;5.616;2022-08-19T00:19:28;101025.69;;;19.22;100.00
64544;BME280;50936;51.660;5.616;2022-08-19T00:21:55;101021.56;;;19.18;100.00
64544;BME280;50936;51.660;5.616;2022-08-19T00:24:22;101028.91;;;19.18;100.00
64544;BME280;50936;51.660;5.616;2022-08-19T00:26:51;101028.38;;;19.14;100.00
64544;BME280;50936;51.660;5.616;2022-08-19T00:29:20;101027.81;;;19.11;100.00
64544;BME280;50936;51.660;5.616;2022-08-19T00:31:48;101036.50;;;19.06;100.00
64544;BME280;50936;51.660;5.616;2022-08-19T00:34:16;101032.06;;;19.05;100.00
64544;BME280;50936;51.660;5.616;2022-08-19T00:36:44;101034.94;;;19.03;100.00
64544;BME280;50936;51.660;5.616;2022-08-19T00:39:12;101039.19;;;18.98;100.00
64544;BME280;50936;51.660;5.616;2022-08-19T00:41:43;101043.41;;;18.92;100.00
64544;BME280;50936;51.660;5.616;2022-08-19T00:44:18;101040.13;;;18.89;100.00
64544;BME280;50936;51.660;5.616;2022-08-19T00:46:54;101041.41;;;18.84;100.00
64544;BME280;50936;51.660;5.616;2022-08-19T00:49:40;101048.19;;;18.80;100.00
64544;BME280;50936;51.660;5.616;2022-08-19T00:52:20;101040.63;;;18.74;100.00
64544;BME280;50936;51.660;5.616;2022-08-19T00:54:50;101036.78;;;18.67;100.00
64544;BME280;50936;51.660;5.616;2022-08-19T00:57:24;101040.84;;;18.63;100.00
64544;BME280;50936;51.660;5.616;2022-08-19T00:59:56;101039.41;;;18.59;100.00
64544;BME280;50936;51.660;5.616;2022-08-19T01:02:29;101043.19;;;18.58;100.00
64544;BME280;50936;51.660;5.616;2022-08-19T01:04:59;101038.00;;;18.55;100.00
64544;BME280;50936;51.660;5.616;2022-08-19T01:07:28;101031.13;;;18.51;100.00
64544;BME280;50936;51.660;5.616;2022-08-19T01:10:05;101029.72;;;18.46;100.00
64544;BME280;50936;51.660;5.616;2022-08-19T01:12:35;101030.88;;;18.44;100.00
64544;BME280;50936;51.660;5.616;2022-08-19T01:15:05;101030.31;;;18.40;100.00
64544;BME280;50936;51.660;5.616;2022-08-19T01:17:36;101034.09;;;18.39;100.00
64544;BME280;50936;51.660;5.616;2022-08-19T01:20:06;101036.97;;;18.38;100.00
64544;BME280;50936;51.660;5.616;2022-08-19T01:22:46;101047.91;;;18.38;100.00
64544;BME280;50936;51.660;5.616;2022-08-19T01:25:18;101039.69;;;18.38;100.00
64544;BME280;50936;51.660;5.616;2022-08-19T01:27:50;101037.81;;;18.38;100.00
64544;BME280;50936;51.660;5.616;2022-08-19T01:30:23;101045.31;;;18.36;100.00
64544;BME280;50936;51.660;5.616;2022-08-19T01:32:54;101043.59;;;18.35;100.00
64544;BME280;50936;51.660;5.616;2022-08-19T01:35:23;101045.78;;;18.32;100.00
64544;BME280;50936;51.660;5.616;2022-08-19T01:38:00;101037.31;;;18.25;100.00
64544;BME280;50936;51.660;5.616;2022-08-19T01:40:37;101038.66;;;18.21;100.00
64544;BME280;50936;51.660;5.616;2022-08-19T01:43:06;101037.94;;;18.19;100.00
64544;BME280;50936;51.660;5.616;2022-08-19T01:45:34;101035.34;;;18.17;100.00
64544;BME280;50936;51.660;5.616;2022-08-19T01:48:02;101035.34;;;18.17;100.00
64544;BME280;50936;51.660;5.616;2022-08-19T01:50:32;101039.94;;;18.17;100.00
64544;BME280;50936;51.660;5.616;2022-08-19T01:53:02;101032.91;;;18.14;100.00
64544;BME280;50936;51.660;5.616;2022-08-19T01:55:38;101044.69;;;18.15;100.00
64544;BME280;50936;51.660;5.616;2022-08-19T01:58:15;101040.41;;;18.12;100.00
64544;BME280;50936;51.660;5.616;2022-08-19T02:00:48;101043.28;;;18.11;100.00
64544;BME280;50936;51.660;5.616;2022-08-19T02:03:15;101042.88;;;18.05;100.00
64544;BME280;50936;51.660;5.616;2022-08-19T02:05:43;101046.63;;;18.04;100.00
64544;BME280;50936;51.660;5.616;2022-08-19T02:08:11;101055.53;;;18.06;100.00
64544;BME280;50936;51.660;5.616;2022-08-19T02:10:41;101051.50;;;18.11;100.00
64544;BME280;50936;51.660;5.616;2022-08-19T02:13:10;101046.31;;;18.07;100.00
64544;BME280;50936;51.660;5.616;2022-08-19T02:15:38;101049.75;;;18.09;100.00
64544;BME280;50936;51.660;5.616;2022-08-19T02:18:06;101064.44;;;18.08;100.00
64544;BME280;50936;51.660;5.616;2022-08-19T02:20:35;101059.59;;;18.02;100.00
64544;BME280;50936;51.660;5.616;2022-08-19T02:23:03;101063.63;;;17.98;100.00
64544;BME280;50936;51.660;5.616;2022-08-19T02:25:39;101054.00;;;17.94;100.00
64544;BME280;50936;51.660;5.616;2022-08-19T02:28:07;101049.84;;;17.90;100.00
64544;BME280;50936;51.660;5.616;2022-08-19T02:30:34;101050.13;;;17.87;100.00
64544;BME280;50936;51.660;5.616;2022-08-19T02:33:01;101055.00;;;17.83;100.00
64544;BME280;50936;51.660;5.616;2022-08-19T02:35:28;101056.19;;;17.81;100.00
64544;BME280;50936;51.660;5.616;2022-08-19T02:37:54;101064.53;;;17.79;100.00
64544;BME280;50936;51.660;5.616;2022-08-19T02:40:40;101058.19;;;17.79;100.00
64544;BME280;50936;51.660;5.616;2022-08-19T02:43:15;101060.47;;;17.83;100.00
64544;BME280;50936;51.660;5.616;2022-08-19T02:45:42;101071.16;;;17.86;100.00
64544;BME280;50936;51.660;5.616;2022-08-19T02:48:09;101061.06;;;17.87;100.00
64544;BME280;50936;51.660;5.616;2022-08-19T02:50:48;101063.81;;;17.87;100.00
64544;BME280;50936;51.660;5.616;2022-08-19T02:53:23;101075.16;;;17.92;100.00
64544;BME280;50936;51.660;5.616;2022-08-19T02:55:52;101070.53;;;17.93;100.00
64544;BME280;50936;51.660;5.616;2022-08-19T02:58:21;101063.81;;;17.87;100.00
64544;BME280;50936;51.660;5.616;2022-08-19T03:00:53;101067.97;;;17.81;100.00
64544;BME280;50936;51.660;5.616;2022-08-19T03:03:22;101072.56;;;17.81;100.00
64544;BME280;50936;51.660;5.616;2022-08-19T03:05:49;101070.84;;;17.80;100.00
64544;BME280;50936;51.660;5.616;2022-08-19T03:08:23;101065.38;;;17.80;100.00
64544;BME280;50936;51.660;5.616;2022-08-19T03:10:52;101065.69;;;17.77;100.00
64544;BME280;50936;51.660;5.616;2022-08-19T03:13:20;101064.25;;;17.73;100.00
64544;BME280;50936;51.660;5.616;2022-08-19T03:15:48;101059.66;;;17.63;100.00
64544;BME280;50936;51.660;5.616;2022-08-19T03:18:15;101065.72;;;17.57;100.00
64544;BME280;50936;51.660;5.616;2022-08-19T03:20:46;101071.78;;;17.51;100.00
64544;BME280;50936;51.660;5.616;2022-08-19T03:23:16;101079.22;;;17.49;100.00
64544;BME280;50936;51.660;5.616;2022-08-19T03:25:46;101076.50;;;17.49;100.00
64544;BME280;50936;51.660;5.616;2022-08-19T03:28:34;101077.81;;;17.45;100.00
64544;BME280;50936;51.660;5.616;2022-08-19T03:31:07;101072.34;;;17.45;100.00
64544;BME280;50936;51.660;5.616;2022-08-19T03:33:58;101073.50;;;17.42;100.00
64544;BME280;50936;51.660;5.616;2022-08-19T03:36:26;101077.09;;;17.43;100.00
64544;BME280;50936;51.660;5.616;2022-08-19T03:38:58;101079.22;;;17.49;100.00
64544;BME280;50936;51.660;5.616;2022-08-19T03:41:29;101070.03;;;17.50;100.00
64544;BME280;50936;51.660;5.616;2022-08-19T03:44:11;101073.50;;;17.52;100.00
64544;BME280;50936;51.660;5.616;2022-08-19T03:46:44;101067.03;;;17.53;100.00
64544;BME280;50936;51.660;5.616;2022-08-19T03:49:12;101060.53;;;17.54;100.00
64544;BME280;50936;51.660;5.616;2022-08-19T03:51:41;101061.72;;;17.51;100.00
64544;BME280;50936;51.660;5.616;2022-08-19T03:54:12;101056.53;;;17.48;100.00
64544;BME280;50936;51.660;5.616;2022-08-19T03:56:43;101046.91;;;17.44;100.00
64544;BME280;50936;51.660;5.616;2022-08-19T03:59:16;101045.31;;;17.42;100.00
64544;BME280;50936;51.660;5.616;2022-08-19T04:01:47;101060.00;;;17.41;100.00
64544;BME280;50936;51.660;5.616;2022-08-19T04:04:13;101058.97;;;17.42;100.00
64544;BME280;50936;51.660;5.616;2022-08-19T04:06:41;101066.88;;;17.45;100.00
64544;BME280;50936;51.660;5.616;2022-08-19T04:09:11;101077.81;;;17.45;100.00
64544;BME280;50936;51.660;5.616;2022-08-19T04:11:41;101079.25;;;17.39;100.00
64544;BME280;50936;51.660;5.616;2022-08-19T04:14:23;101073.50;;;17.32;100.00
64544;BME280;50936;51.660;5.616;2022-08-19T04:16:58;101066.63;;;17.28;100.00
64544;BME280;50936;51.660;5.616;2022-08-19T04:19:26;101060.59;;;17.25;100.00
64544;BME280;50936;51.660;5.616;2022-08-19T04:21:56;101064.91;;;17.18;100.00
64544;BME280;50936;51.660;5.616;2022-08-19T04:24:23;101068.06;;;17.13;100.00
64544;BME280;50936;51.660;5.616;2022-08-19T04:26:50;101059.44;;;17.08;100.00
64544;BME280;50936;51.660;5.616;2022-08-19T04:29:23;101059.16;;;17.01;100.00
64544;BME280;50936;51.660;5.616;2022-08-19T04:31:54;101053.13;;;16.98;100.00
64544;BME280;50936;51.660;5.616;2022-08-19T04:34:25;101043.94;;;16.99;100.00
64544;BME280;50936;51.660;5.616;2022-08-19T04:36:55;101047.97;;;16.95;100.00
64544;BME280;50936;51.660;5.616;2022-08-19T04:39:30;101040.78;;;16.93;100.00
64544;BME280;50936;51.660;5.616;2022-08-19T04:42:17;101057.16;;;16.93;100.00
64544;BME280;50936;51.660;5.616;2022-08-19T04:45:07;101047.97;;;16.95;100.00
64544;BME280;50936;51.660;5.616;2022-08-19T04:47:39;101047.25;;;16.92;100.00
64544;BME280;50936;51.660;5.616;2022-08-19T04:50:25;101061.75;;;16.93;100.00
64544;BME280;50936;51.660;5.616;2022-08-19T04:52:53;101057.41;;;16.90;100.00
64544;BME280;50936;51.660;5.616;2022-08-19T04:55:22;101057.72;;;16.87;100.00
64544;BME280;50936;51.660;5.616;2022-08-19T04:57:53;101062.59;;;16.84;100.00
64544;BME280;50936;51.660;5.616;2022-08-19T05:00:21;101065.72;;;16.79;100.00
64544;BME280;50936;51.660;5.616;2022-08-19T05:02:48;101068.75;;;16.76;100.00
64544;BME280;50936;51.660;5.616;2022-08-19T05:05:16;101068.88;;;16.74;100.00
64544;BME280;50936;51.660;5.616;2022-08-19T05:07:44;101071.75;;;16.73;100.00
64544;BME280;50936;51.660;5.616;2022-08-19T05:10:11;101067.13;;;16.73;100.00
64544;BME280;50936;51.660;5.616;2022-08-19T05:12:39;101070.00;;;16.72;100.00
64544;BME280;50936;51.660;5.616;2022-08-19T05:15:06;101076.16;;;16.74;100.00
64544;BME280;50936;51.660;5.616;2022-08-19T05:17:35;101083.38;;;16.75;100.00
64544;BME280;50936;51.660;5.616;2022-08-19T05:20:07;101089.81;;;16.74;100.00
64544;BME280;50936;51.660;5.616;2022-08-19T05:22:53;101085.50;;;16.71;100.00
64544;BME280;50936;51.660;5.616;2022-08-19T05:25:21;101084.66;;;16.71;100.00
64544;BME280;50936;51.660;5.616;2022-08-19T05:27:48;101089.81;;;16.74;100.00
64544;BME280;50936;51.660;5.616;2022-08-19T05:30:16;101095.00;;;16.77;100.00
64544;BME280;50936;51.660;5.616;2022-08-19T05:32:44;101098.16;;;16.82;100.00
64544;BME280;50936;51.660;5.616;2022-08-19T05:35:11;101095.91;;;16.87;100.00
64544;BME280;50936;51.660;5.616;2022-08-19T05:37:39;101092.16;;;16.88;100.00
64544;BME280;50936;51.660;5.616;2022-08-19T05:40:09;101110.00;;;16.92;100.00
64544;BME280;50936;51.660;5.616;2022-08-19T05:42:37;101111.56;;;16.95;100.00
64544;BME280;50936;51.660;5.616;2022-08-19T05:45:05;101114.03;;;16.98;100.00
64544;BME280;50936;51.660;5.616;2022-08-19T05:47:33;101113.72;;;17.01;100.00
64544;BME280;50936;51.660;5.616;2022-08-19T05:50:07;101107.72;;;17.07;100.00
64544;BME280;50936;51.660;5.616;2022-08-19T05:52:36;101111.16;;;17.09;100.00
64544;BME280;50936;51.660;5.616;2022-08-19T05:55:09;101109.41;;;17.08;100.00
64544;BME280;50936;51.660;5.616;2022-08-19T05:57:36;101114.88;;;17.08;100.00
64544;BME280;50936;51.660;5.616;2022-08-19T06:00:05;101106.69;;;17.08;100.00
64544;BME280;50936;51.660;5.616;2022-08-19T06:02:37;101099.78;;;17.14;100.00
64544;BME280;50936;51.660;5.616;2022-08-19T06:05:05;101095.81;;;17.18;100.00
64544;BME280;50936;51.660;5.616;2022-08-19T06:07:33;101095.34;;;17.23;100.00
64544;BME280;50936;51.660;5.616;2022-08-19T06:10:07;101103.97;;;17.28;100.00
64544;BME280;50936;51.660;5.616;2022-08-19T06:12:37;101098.06;;;17.32;100.00
64544;BME280;50936;51.660;5.616;2022-08-19T06:15:08;101091.34;;;17.37;100.00
64544;BME280;50936;51.660;5.616;2022-08-19T06:17:37;101091.75;;;17.42;100.00
64544;BME280;50936;51.660;5.616;2022-08-19T06:20:08;101093.19;;;17.46;100.00
64544;BME280;50936;51.660;5.616;2022-08-19T06:22:40;101091.88;;;17.50;100.00
64544;BME280;50936;51.660;5.616;2022-08-19T06:25:08;101094.47;;;17.51;100.00
64544;BME280;50936;51.660;5.616;2022-08-19T06:27:36;101110.97;;;17.60;100.00
64544;BME280;50936;51.660;5.616;2022-08-19T06:30:18;101098.19;;;17.70;100.00
64544;BME280;50936;51.660;5.616;2022-08-19T06:32:45;101099.00;;;17.80;100.00
64544;BME280;50936;51.660;5.616;2022-08-19T06:35:12;101093.84;;;17.87;100.00
64544;BME280;50936;51.660;5.616;2022-08-19T06:37:41;101098.72;;;17.93;100.00
64544;BME280;50936;51.660;5.616;2022-08-19T06:40:10;101084.91;;;18.04;100.00
64544;BME280;50936;51.660;5.616;2022-08-19T06:42:39;101084.28;;;18.11;100.00
64544;BME280;50936;51.660;5.616;2022-08-19T06:45:21;101083.94;;;18.23;100.00
64544;BME280;50936;51.660;5.616;2022-08-19T06:47:51;101089.69;;;18.30;100.00
64544;BME280;50936;51.660;5.616;2022-08-19T06:50:24;101096.72;;;18.33;100.00
64544;BME280;50936;51.660;5.616;2022-08-19T06:52:51;101101.00;;;18.35;100.00
64544;BME280;50936;51.660;5.616;2022-08-19T06:55:19;101094.81;;;18.43;100.00
64544;BME280;50936;51.660;5.616;2022-08-19T06:57:46;101096.28;;;18.55;100.00
64544;BME280;50936;51.660;5.616;2022-08-19T07:00:14;101102.13;;;18.70;100.00
64544;BME280;50936;51.660;5.616;2022-08-19T07:02:43;101109.81;;;18.84;100.00
64544;BME280;50936;51.660;5.616;2022-08-19T07:05:21;101102.28;;;18.96;100.00
64544;BME280;50936;51.660;5.616;2022-08-19T07:07:49;101105.63;;;19.08;100.00
64544;BME280;50936;51.660;5.616;2022-08-19T07:10:17;101102.44;;;19.13;100.00
64544;BME280;50936;51.660;5.616;2022-08-19T07:12:44;101104.00;;;19.15;100.00
64544;BME280;50936;51.660;5.616;2022-08-19T07:15:12;101099.91;;;19.19;100.00
64544;BME280;50936;51.660;5.616;2022-08-19T07:17:39;101101.34;;;19.23;100.00
64544;BME280;50936;51.660;5.616;2022-08-19T07:20:08;101104.00;;;19.33;100.00
64544;BME280;50936;51.660;5.616;2022-08-19T07:22:38;101106.97;;;19.40;100.00
64544;BME280;50936;51.660;5.616;2022-08-19T07:25:08;101113.47;;;19.39;100.00
64544;BME280;50936;51.660;5.616;2022-08-19T07:27:36;101113.47;;;19.39;100.00
64544;BME280;50936;51.660;5.616;2022-08-19T07:30:07;101122.91;;;19.62;100.00
64544;BME280;50936;51.660;5.616;2022-08-19T07:32:38;101119.78;;;20.02;100.00
64544;BME280;50936;51.660;5.616;2022-08-19T07:35:06;101122.34;;;20.29;100.00
64544;BME280;50936;51.660;5.616;2022-08-19T07:37:34;101127.25;;;20.52;100.00
64544;BME280;50936;51.660;5.616;2022-08-19T07:40:04;101126.03;;;20.89;100.00
64544;BME280;50936;51.660;5.616;2022-08-19T07:42:34;101129.53;;;21.32;98.92
64544;BME280;50936;51.660;5.616;2022-08-19T07:45:02;101130.94;;;21.36;97.58
64544;BME280;50936;51.660;5.616;2022-08-19T07:47:30;101132.28;;;21.32;96.60
64544;BME280;50936;51.660;5.616;2022-08-19T07:50:17;101140.06;;;21.45;96.17
64544;BME280;50936;51.660;5.616;2022-08-19T07:52:46;101138.53;;;21.59;93.49
64544;BME280;50936;51.660;5.616;2022-08-19T07:55:20;101149.19;;;21.70;93.59
64544;BME280;50936;51.660;5.616;2022-08-19T07:58:10;101145.75;;;21.68;94.39
64544;BME280;50936;51.660;5.616;2022-08-19T08:00:39;101136.44;;;22.02;92.46
64544;BME280;50936;51.660;5.616;2022-08-19T08:03:08;101141.94;;;22.02;91.73
64544;BME280;50936;51.660;5.616;2022-08-19T08:05:35;101136.75;;;22.07;92.60
64544;BME280;50936;51.660;5.616;2022-08-19T08:08:20;101138.03;;;22.52;91.02
64544;BME280;50936;51.660;5.616;2022-08-19T08:11:18;101139.88;;;22.99;88.04
64544;BME280;50936;51.660;5.616;2022-08-19T08:13:49;101142.19;;;23.19;86.18
64544;BME280;50936;51.660;5.616;2022-08-19T08:16:34;101141.91;;;23.60;84.08
64544;BME280;50936;51.660;5.616;2022-08-19T08:19:13;101153.16;;;23.96;81.72
64544;BME280;50936;51.660;5.616;2022-08-19T08:21:55;101151.19;;;24.05;80.45
64544;BME280;50936;51.660;5.616;2022-08-19T08:24:25;101151.19;;;24.05;79.77
64544;BME280;50936;51.660;5.616;2022-08-19T08:26:58;101154.50;;;23.77;79.87
64544;BME280;50936;51.660;5.616;2022-08-19T08:29:28;101158.56;;;23.43;81.93
64544;BME280;50936;51.660;5.616;2022-08-19T08:32:00;101170.50;;;23.36;82.55
64544;BME280;50936;51.660;5.616;2022-08-19T08:34:28;101177.53;;;23.38;81.37
64544;BME280;50936;51.660;5.616;2022-08-19T08:36:55;101176.63;;;22.83;83.30
64544;BME280;50936;51.660;5.616;2022-08-19T08:39:22;101167.84;;;22.40;86.11
64544;BME280;50936;51.660;5.616;2022-08-19T08:42:04;101165.31;;;21.89;89.13
64544;BME280;50936;51.660;5.616;2022-08-19T08:44:58;101181.50;;;21.76;90.61
64544;BME280;50936;51.660;5.616;2022-08-19T08:47:36;101189.72;;;21.68;90.56
64544;BME280;50936;51.660;5.616;2022-08-19T08:50:13;101192.13;;;21.63;91.81
64544;BME280;50936;51.660;5.616;2022-08-19T08:52:50;101193.69;;;21.65;91.01
64544;BME280;50936;51.660;5.616;2022-08-19T08:55:24;101189.34;;;21.46;92.21
64544;BME280;50936;51.660;5.616;2022-08-19T08:58:20;101187.66;;;21.53;93.25
64544;BME280;50936;51.660;5.616;2022-08-19T09:00:54;101188.16;;;21.49;93.15
64544;BME280;50936;51.660;5.616;2022-08-19T09:03:25;101194.69;;;21.48;93.42
64544;BME280;50936;51.660;5.616;2022-08-19T09:06:04;101188.34;;;21.47;93.03
64544;BME280;50936;51.660;5.616;2022-08-19T09:14:43;101190.03;;;21.48;93.16
64544;BME280;50936;51.660;5.616;2022-08-19T09:17:20;101179.56;;;21.52;92.20
64544;BME280;50936;51.660;5.616;2022-08-19T09:22:38;101189.97;;;21.32;94.17
64544;BME280;50936;51.660;5.616;2022-08-19T09:25:08;101186.38;;;21.31;92.53
64544;BME280;50936;51.660;5.616;2022-08-19T09:27:38;101194.63;;;21.23;92.44
64544;BME280;50936;51.660;5.616;2022-08-19T09:30:21;101185.50;;;21.23;92.22
64544;BME280;50936;51.660;5.616;2022-08-19T09:32:56;101187.22;;;21.32;92.51
64544;BME280;50936;51.660;5.616;2022-08-19T09:35:28;101197.78;;;21.53;91.37
64544;BME280;50936;51.660;5.616;2022-08-19T09:37:57;101199.88;;;21.67;90.95
64544;BME280;50936;51.660;5.616;2022-08-19T09:40:27;101195.75;;;21.71;89.82
64544;BME280;50936;51.660;5.616;2022-08-19T09:42:56;101205.38;;;21.67;90.56
64544;BME280;50936;51.660;5.616;2022-08-19T09:45:35;101202.78;;;21.66;91.13
64544;BME280;50936;51.660;5.616;2022-08-19T09:48:02;101202.78;;;21.66;91.41
64544;BME280;50936;51.660;5.616;2022-08-19T09:50:29;101206.53;;;21.65;91.71
64544;BME280;50936;51.660;5.616;2022-08-19T09:53:00;101204.16;;;21.70;91.82
64544;BME280;50936;51.660;5.616;2022-08-19T09:55:27;101205.88;;;21.71;91.25
64544;BME280;50936;51.660;5.616;2022-08-19T09:58:02;101207.94;;;21.69;91.65
64544;BME280;50936;51.660;5.616;2022-08-19T10:00:30;101207.59;;;21.64;92.37
64544;BME280;50936;51.660;5.616;2022-08-19T10:02:57;101202.44;;;21.69;92.00
64544;BME280;50936;51.660;5.616;2022-08-19T10:05:24;101206.25;;;21.92;91.25
64544;BME280;50936;51.660;5.616;2022-08-19T10:08:16;101203.78;;;22.22;89.91
64544;BME280;50936;51.660;5.616;2022-08-19T10:10:52;101204.81;;;22.46;86.74
64544;BME280;50936;51.660;5.616;2022-08-19T10:13:24;101205.97;;;22.60;85.21
64544;BME280;50936;51.660;5.616;2022-08-19T10:15:55;101197.81;;;22.75;84.09
64544;BME280;50936;51.660;5.616;2022-08-19T10:18:28;101200.56;;;22.75;83.48
64544;BME280;50936;51.660;5.616;2022-08-19T10:21:13;101197.53;;;22.70;83.39
64544;BME280;50936;51.660;5.616;2022-08-19T10:23:45;101200.31;;;22.53;83.05
64544;BME280;50936;51.660;5.616;2022-08-19T10:26:21;101200.88;;;22.40;84.18
64544;BME280;50936;51.660;5.616;2022-08-19T10:28:52;101194.81;;;22.53;83.90
64544;BME280;50936;51.660;5.616;2022-08-19T10:31:25;101199.25;;;22.62;82.33
64544;BME280;50936;51.660;5.616;2022-08-19T10:34:13;101198.53;;;22.68;83.16
64544;BME280;50936;51.660;5.616;2022-08-19T10:36:54;101200.91;;;22.80;82.64
64544;BME280;50936;51.660;5.616;2022-08-19T10:39:32;101206.69;;;22.93;82.49
64544;BME280;50936;51.660;5.616;2022-08-19T10:42:09;101205.00;;;22.92;81.21
64544;BME280;50936;51.660;5.616;2022-08-19T10:44:41;101199.97;;;22.96;80.94
64544;BME280;50936;51.660;5.616;2022-08-19T10:47:08;101197.91;;;22.98;79.88
64544;BME280;50936;51.660;5.616;2022-08-19T10:49:53;101201.69;;;22.97;80.60
64544;BME280;50936;51.660;5.616;2022-08-19T10:52:45;101195.31;;;22.96;81.08
64544;BME280;50936;51.660;5.616;2022-08-19T10:55:21;101197.22;;;22.96;80.81
64544;BME280;50936;51.660;5.616;2022-08-19T10:58:12;101193.03;;;22.77;82.54
64544;BME280;50936;51.660;5.616;2022-08-19T11:00:40;101188.88;;;22.73;83.19
64544;BME280;50936;51.660;5.616;2022-08-19T11:03:10;101180.94;;;22.78;83.72
64544;BME280;50936;51.660;5.616;2022-08-19T11:05:37;101182.97;;;22.92;83.24
64544;BME280;50936;51.660;5.616;2022-08-19T11:08:06;101177.56;;;23.07;82.21
64544;BME280;50936;51.660;5.616;2022-08-19T11:10:51;101180.09;;;23.17;81.36
64544;BME280;50936;51.660;5.616;2022-08-19T11:13:23;101177.31;;;23.25;80.81
64544;BME280;50936;51.660;5.616;2022-08-19T11:16:03;101174.78;;;23.38;79.85
64544;BME280;50936;51.660;5.616;2022-08-19T11:18:38;101180.25;;;23.47;78.62
64544;BME280;50936;51.660;5.616;2022-08-19T11:21:12;101172.00;;;23.47;78.20
64544;BME280;50936;51.660;5.616;2022-08-19T11:23:47;101176.13;;;23.42;78.61
64544;BME280;50936;51.660;5.616;2022-08-19T11:26:17;101181.84;;;23.64;77.47
64544;BME280;50936;51.660;5.616;2022-08-19T11:28:45;101189.66;;;23.75;76.08
64544;BME280;50936;51.660;5.616;2022-08-19T11:31:18;101175.69;;;23.85;75.60
64544;BME280;50936;51.660;5.616;2022-08-19T11:33:49;101185.84;;;23.85;74.93
64544;BME280;50936;51.660;5.616;2022-08-19T11:36:21;101182.81;;;23.71;75.34
64544;BME280;50936;51.660;5.616;2022-08-19T11:38:49;101170.50;;;23.59;75.81
64544;BME280;50936;51.660;5.616;2022-08-19T11:41:18;101164.72;;;23.54;75.60
64544;BME280;50936;51.660;5.616;2022-08-19T11:43:46;101165.81;;;23.44;74.73
64544;BME280;50936;51.660;5.616;2022-08-19T11:46:15;101164.09;;;23.43;76.07
64544;BME280;50936;51.660;5.616;2022-08-19T11:48:43;101161.63;;;23.49;76.38
64544;BME280;50936;51.660;5.616;2022-08-19T11:51:13;101163.38;;;23.64;76.75
64544;BME280;50936;51.660;5.616;2022-08-19T11:53:42;101168.75;;;23.89;75.65
64544;BME280;50936;51.660;5.616;2022-08-19T11:56:09;101166.50;;;24.08;74.02
64544;BME280;50936;51.660;5.616;2022-08-19T11:58:36;101167.16;;;24.25;72.74
64544;BME280;50936;51.660;5.616;2022-08-19T12:01:08;101180.91;;;24.33;71.12
64544;BME280;50936;51.660;5.616;2022-08-19T12:03:38;101171.06;;;24.15;70.87
64544;BME280;50936;51.660;5.616;2022-08-19T12:06:07;101167.88;;;23.89;72.63
64544;BME280;50936;51.660;5.616;2022-08-19T12:08:36;101174.75;;;23.93;73.14
64544;BME280;50936;51.660;5.616;2022-08-19T12:11:04;101172.56;;;24.03;71.59
64544;BME280;50936;51.660;5.616;2022-08-19T12:13:32;101174.78;;;24.23;71.87
64544;BME280;50936;51.660;5.616;2022-08-19T12:15:58;101173.78;;;24.53;70.35
64544;BME280;50936;51.660;5.616;2022-08-19T12:18:26;101169.69;;;24.79;69.29
64544;BME280;50936;51.660;5.616;2022-08-19T12:20:53;101176.59;;;25.05;67.61
64544;BME280;50936;51.660;5.616;2022-08-19T12:23:23;101170.16;;;25.19;66.39
64544;BME280;50936;51.660;5.616;2022-08-19T12:25:50;101180.38;;;25.19;66.08
64544;BME280;50936;51.660;5.616;2022-08-19T12:28:19;101179.22;;;25.13;65.78
64544;BME280;50936;51.660;5.616;2022-08-19T12:30:47;101172.50;;;25.01;66.37
64544;BME280;50936;51.660;5.616;2022-08-19T12:33:19;101165.97;;;24.72;67.00
64544;BME280;50936;51.660;5.616;2022-08-19T12:35:50;101161.78;;;24.61;67.26
64544;BME280;50936;51.660;5.616;2022-08-19T12:38:17;101156.44;;;24.45;67.66
64544;BME280;50936;51.660;5.616;2022-08-19T12:40:47;101149.41;;;24.42;69.29
64544;BME280;50936;51.660;5.616;2022-08-19T12:43:15;101155.97;;;24.71;68.92
64544;BME280;50936;51.660;5.616;2022-08-19T12:45:43;101153.81;;;25.03;67.07
64544;BME280;50936;51.660;5.616;2022-08-19T12:48:12;101156.25;;;25.27;66.68
64544;BME280;50936;51.660;5.616;2022-08-19T12:51:05;101154.97;;;25.45;65.55
64544;BME280;50936;51.660;5.616;2022-08-19T12:53:34;101153.94;;;25.31;65.82
64544;BME280;50936;51.660;5.616;2022-08-19T12:56:06;101159.50;;;25.16;66.06
64544;BME280;50936;51.660;5.616;2022-08-19T12:58:38;101146.19;;;25.05;67.19
64544;BME280;50936;51.660;5.616;2022-08-19T13:01:15;101144.88;;;25.22;65.70
64544;BME280;50936;51.660;5.616;2022-08-19T13:03:49;101139.94;;;25.54;65.72
64544;BME280;50936;51.660;5.616;2022-08-19T13:06:19;101137.63;;;25.79;65.55
64544;BME280;50936;51.660;5.616;2022-08-19T13:08:47;101135.16;;;25.91;64.52
64544;BME280;50936;51.660;5.616;2022-08-19T13:11:17;101131.41;;;25.99;64.77
64544;BME280;50936;51.660;5.616;2022-08-19T13:13:46;101133.00;;;26.15;63.94
64544;BME280;50936;51.660;5.616;2022-08-19T13:16:15;101131.22;;;26.35;62.97